createdAt,value
2019-04-02T00:01:55.780Z,95557.00
2019-04-02T00:04:27.638Z,95554.00
2019-04-02T00:07:00.340Z,95547.00
2019-04-02T00:09:32.711Z,95551.00
2019-04-02T00:12:04.541Z,95541.00
2019-04-02T00:14:36.403Z,95547.00
2019-04-02T00:17:10.217Z,95544.00
2019-04-02T00:19:42.181Z,95546.00
2019-04-02T00:22:13.996Z,95549.00
2019-04-02T00:24:45.871Z,95543.00
2019-04-02T00:27:17.946Z,95550.00
2019-04-02T00:29:50.158Z,95543.00
2019-04-02T00:32:21.949Z,95553.00
2019-04-02T00:34:54.095Z,95537.00
2019-04-02T00:37:26.676Z,95535.00
2019-04-02T00:39:58.847Z,95544.00
2019-04-02T00:42:30.661Z,95543.00
2019-04-02T00:45:02.547Z,95539.00
2019-04-02T00:47:34.404Z,95534.00
2019-04-02T00:50:08.133Z,95534.00
2019-04-02T00:52:39.943Z,95530.00
2019-04-02T00:55:12.074Z,95533.00
2019-04-02T00:57:44.205Z,95532.00
2019-04-02T01:00:18.420Z,95524.00
2019-04-02T01:02:50.818Z,95528.00
2019-04-02T01:05:22.685Z,95530.00
2019-04-02T01:07:54.607Z,95533.00
2019-04-02T01:10:26.485Z,95533.00
2019-04-02T01:12:58.616Z,95529.00
2019-04-02T01:15:30.747Z,95520.00
2019-04-02T01:18:02.838Z,95518.00
2019-04-02T01:20:34.690Z,95520.00
2019-04-02T01:23:06.797Z,95508.00
2019-04-02T01:25:38.601Z,95510.00
2019-04-02T01:28:10.554Z,95509.00
2019-04-02T01:30:42.353Z,95504.00
2019-04-02T01:33:14.193Z,95501.00
2019-04-02T01:35:46.002Z,95495.00
2019-04-02T01:38:18.108Z,95493.00
2019-04-02T01:40:49.891Z,95494.00
2019-04-02T01:43:22.120Z,95494.00
2019-04-02T01:45:53.951Z,95488.00
2019-04-02T01:48:26.093Z,95481.00
2019-04-02T01:50:58.200Z,95477.00
2019-04-02T01:53:30.431Z,95475.00
2019-04-02T01:56:02.436Z,95484.00
2019-04-02T01:58:34.381Z,95477.00
2019-04-02T02:01:06.444Z,95471.00
2019-04-02T02:03:38.864Z,95474.00
2019-04-02T02:06:11.085Z,95472.00
2019-04-02T02:08:44.316Z,95481.00
2019-04-02T02:11:16.111Z,95481.00
2019-04-02T02:13:48.225Z,95472.00
2019-04-02T02:16:20.034Z,95473.00
2019-04-02T02:18:51.870Z,95479.00
2019-04-02T02:21:23.687Z,95467.00
2019-04-02T02:23:56.403Z,95470.00
2019-04-02T02:26:28.211Z,95464.00
2019-04-02T02:29:01.365Z,95464.00
2019-04-02T02:31:35.953Z,95471.00
2019-04-02T02:34:08.720Z,95472.00
2019-04-02T02:36:40.950Z,95473.00
2019-04-02T02:39:12.792Z,95468.00
2019-04-02T02:42:12.940Z,95462.00
2019-04-02T02:44:44.702Z,95466.00
2019-04-02T02:47:16.513Z,95463.00
2019-04-02T02:49:49.300Z,95467.00
2019-04-02T02:52:21.592Z,95449.00
2019-04-02T02:54:53.463Z,95459.00
2019-04-02T02:57:25.547Z,95438.00
2019-04-02T02:59:57.824Z,95446.00
2019-04-02T03:02:29.713Z,95445.00
2019-04-02T03:05:01.807Z,95446.00
2019-04-02T03:07:34.245Z,95451.00
2019-04-02T03:10:06.450Z,95452.00
2019-04-02T03:12:38.771Z,95447.00
2019-04-02T03:15:10.810Z,95458.00
2019-04-02T03:17:43.692Z,95447.00
2019-04-02T03:20:16.391Z,95443.00
2019-04-02T03:22:48.404Z,95443.00
2019-04-02T03:25:21.715Z,95445.00
2019-04-02T03:27:54.411Z,95450.00
2019-04-02T03:30:31.818Z,95439.00
2019-04-02T03:33:03.926Z,95445.00
2019-04-02T03:35:35.759Z,95434.00
2019-04-02T03:38:07.855Z,95433.00
2019-04-02T03:40:40.241Z,95428.00
2019-04-02T03:43:12.516Z,95430.00
2019-04-02T03:45:44.582Z,95426.00
2019-04-02T03:48:16.741Z,95424.00
2019-04-02T03:50:52.296Z,95417.00
2019-04-02T03:53:23.865Z,95420.00
2019-04-02T03:55:56.037Z,95421.00
2019-04-02T03:58:27.839Z,95417.00
2019-04-02T04:01:00.457Z,95410.00
2019-04-02T04:03:32.847Z,95411.00
2019-04-02T04:06:04.947Z,95401.00
2019-04-02T04:08:38.993Z,95399.00
2019-04-02T04:11:12.486Z,95403.00
2019-04-02T04:13:45.207Z,95405.00
2019-04-02T04:16:18.124Z,95400.00
2019-04-02T04:18:50.621Z,95396.00
2019-04-02T04:21:22.921Z,95408.00
2019-04-02T04:23:56.219Z,95398.00
2019-04-02T04:26:28.565Z,95406.00
2019-04-02T04:29:00.449Z,95392.00
2019-04-02T04:31:32.312Z,95395.00
2019-04-02T04:34:04.130Z,95398.00
2019-04-02T04:36:35.976Z,95397.00
2019-04-02T04:39:12.481Z,95391.00
2019-04-02T04:41:42.790Z,95397.00
2019-04-02T04:44:21.040Z,95386.00
2019-04-02T04:46:51.610Z,95383.00
2019-04-02T04:49:23.407Z,95389.00
2019-04-02T04:51:57.368Z,95398.00
2019-04-02T04:54:28.855Z,95398.00
2019-04-02T04:57:00.725Z,95392.00
2019-04-02T04:59:33.067Z,95392.00
2019-04-02T05:02:59.332Z,95383.00
2019-04-02T05:05:31.128Z,95391.00
2019-04-02T05:08:02.986Z,95400.00
2019-04-02T05:10:34.784Z,95392.00
2019-04-02T05:13:06.636Z,95397.00
2019-04-02T05:15:38.449Z,95386.00
2019-04-02T05:18:10.426Z,95399.00
2019-04-02T05:20:42.245Z,95390.00
2019-04-02T05:23:15.243Z,95385.00
2019-04-02T05:25:47.349Z,95389.00
2019-04-02T05:28:19.197Z,95386.00
2019-04-02T05:30:51.168Z,95381.00
2019-04-02T05:33:23.400Z,95383.00
2019-04-02T05:35:55.207Z,95384.00
2019-04-02T05:38:27.066Z,95387.00
2019-04-02T05:40:58.871Z,95384.00
2019-04-02T05:43:30.722Z,95386.00
2019-04-02T05:46:02.698Z,95379.00
2019-04-02T05:48:34.544Z,95384.00
2019-04-02T05:51:06.625Z,95381.00
2019-04-02T05:53:38.943Z,95382.00
2019-04-02T05:56:10.730Z,95387.00
2019-04-02T05:58:42.544Z,95376.00
2019-04-02T06:01:15.941Z,95379.00
2019-04-02T06:03:48.349Z,95368.00
2019-04-02T06:06:20.793Z,95364.00
2019-04-02T06:08:52.974Z,95369.00
2019-04-02T06:11:24.867Z,95363.00
2019-04-02T06:13:57.004Z,95365.00
2019-04-02T06:16:29.155Z,95359.00
2019-04-02T06:19:01.082Z,95353.00
2019-04-02T06:21:33.799Z,95356.00
2019-04-02T06:24:05.650Z,95348.00
2019-04-02T06:26:37.728Z,95336.00
2019-04-02T06:29:09.607Z,95344.00
2019-04-02T06:31:41.412Z,95347.00
2019-04-02T06:34:14.089Z,95341.00
2019-04-02T06:36:46.273Z,95343.00
2019-04-02T06:39:18.128Z,95339.00
2019-04-02T06:41:50.485Z,95330.00
2019-04-02T06:44:24.672Z,95327.00
2019-04-02T06:46:56.298Z,95332.00
2019-04-02T06:49:53.918Z,95317.00
2019-04-02T06:52:27.485Z,95314.00
2019-04-02T06:54:59.328Z,95315.00
2019-04-02T06:57:31.136Z,95312.00
2019-04-02T07:00:03.348Z,95307.00
2019-04-02T07:02:35.145Z,95307.00
2019-04-02T07:05:07.424Z,95313.00
2019-04-02T07:07:39.529Z,95309.00
2019-04-02T07:10:11.541Z,95305.00
2019-04-02T07:12:44.616Z,95301.00
2019-04-02T07:15:16.864Z,95300.00
2019-04-02T07:17:48.677Z,95296.00
2019-04-02T07:20:20.527Z,95292.00
2019-04-02T07:22:52.344Z,95291.00
2019-04-02T07:25:24.509Z,95283.00
2019-04-02T07:27:56.358Z,95282.00
2019-04-02T07:30:28.223Z,95281.00
2019-04-02T07:33:00.273Z,95280.00
2019-04-02T07:35:32.142Z,95276.00
2019-04-02T07:38:06.048Z,95271.00
2019-04-02T07:40:38.558Z,95271.00
2019-04-02T07:43:10.828Z,95272.00
2019-04-02T07:45:42.681Z,95269.00
2019-04-02T07:48:15.716Z,95254.00
2019-04-02T07:50:49.625Z,95249.00
2019-04-02T07:53:21.301Z,95251.00
2019-04-02T07:55:53.136Z,95241.00
2019-04-02T07:58:25.002Z,95244.00
2019-04-02T08:00:56.808Z,95244.00
2019-04-02T08:03:28.984Z,95238.00
2019-04-02T08:06:01.594Z,95242.00
2019-04-02T08:08:33.853Z,95238.00
2019-04-02T08:11:05.661Z,95240.00
2019-04-02T08:13:37.515Z,95243.00
2019-04-02T08:16:09.427Z,95250.00
2019-04-02T08:18:42.461Z,95243.00
2019-04-02T08:21:14.770Z,95240.00
2019-04-02T08:23:46.603Z,95243.00
2019-04-02T08:26:18.807Z,95240.00
2019-04-02T08:28:52.420Z,95239.00
2019-04-02T08:31:24.158Z,95227.00
2019-04-02T08:33:56.020Z,95224.00
2019-04-02T08:36:27.812Z,95232.00
2019-04-02T08:38:59.845Z,95232.00
2019-04-02T08:41:31.700Z,95233.00
2019-04-02T08:44:03.833Z,95228.00
2019-04-02T08:46:35.929Z,95264.00
2019-04-02T08:49:07.790Z,95228.00
2019-04-02T08:51:39.581Z,95230.00
2019-04-02T08:54:11.460Z,95232.00
2019-04-02T08:56:43.271Z,95231.00
2019-04-02T08:59:15.404Z,95226.00
2019-04-02T09:01:47.225Z,95227.00
2019-04-02T09:04:19.505Z,95215.00
2019-04-02T09:06:52.831Z,95218.00
2019-04-02T09:09:24.687Z,95217.00
2019-04-02T09:11:56.496Z,95210.00
2019-04-02T09:14:28.328Z,95203.00
2019-04-02T09:17:00.808Z,95203.00
2019-04-02T09:19:32.660Z,95205.00
2019-04-02T09:22:04.453Z,95212.00
2019-04-02T09:24:36.289Z,95206.00
2019-04-02T09:27:08.195Z,95196.00
2019-04-02T09:29:40.011Z,95201.00
2019-04-02T09:32:11.821Z,95195.00
2019-04-02T09:34:43.658Z,95187.00
2019-04-02T09:37:15.455Z,95187.00
2019-04-02T09:39:47.276Z,95178.00
2019-04-02T09:42:19.085Z,95175.00
2019-04-02T09:44:50.904Z,95189.00
2019-04-02T09:47:22.990Z,95175.00
2019-04-02T09:49:54.809Z,95180.00
2019-04-02T09:52:26.606Z,95177.00
2019-04-02T09:54:58.455Z,95167.00
2019-04-02T09:57:32.623Z,95168.00
2019-04-02T10:00:06.010Z,95162.00
2019-04-02T10:02:37.848Z,95152.00
2019-04-02T10:05:10.037Z,95153.00
2019-04-02T10:07:41.883Z,95134.00
2019-04-02T10:10:14.257Z,95144.00
2019-04-02T10:12:46.199Z,95140.00
2019-04-02T10:15:19.602Z,95140.00
2019-04-02T10:17:51.550Z,95134.00
2019-04-02T10:20:23.354Z,95131.00
2019-04-02T10:22:57.776Z,95136.00
2019-04-02T10:25:28.988Z,95122.00
2019-04-02T10:28:00.825Z,95126.00
2019-04-02T10:30:32.705Z,95116.00
2019-04-02T10:33:04.661Z,95123.00
2019-04-02T10:35:36.467Z,95116.00
2019-04-02T10:38:08.308Z,95115.00
2019-04-02T10:40:40.178Z,95116.00
2019-04-02T10:43:12.162Z,95112.00
2019-04-02T10:45:43.954Z,95105.00
2019-04-02T10:48:15.838Z,95108.00
2019-04-02T10:50:47.632Z,95113.00
2019-04-02T10:53:20.099Z,95101.00
2019-04-02T10:55:52.535Z,95097.00
2019-04-02T10:58:32.957Z,95096.00
2019-04-02T11:00:57.876Z,95092.00
2019-04-02T11:03:29.705Z,95091.00
2019-04-02T11:06:01.823Z,95086.00
2019-04-02T11:08:33.654Z,95093.00
2019-04-02T11:11:05.570Z,95082.00
2019-04-02T11:13:38.706Z,95083.00
2019-04-02T11:16:10.502Z,95084.00
2019-04-02T11:18:42.334Z,95076.00
2019-04-02T11:21:14.329Z,95087.00
2019-04-02T11:23:46.176Z,95074.00
2019-04-02T11:26:18.510Z,95076.00
2019-04-02T11:28:50.934Z,95080.00
2019-04-02T11:31:24.543Z,95071.00
2019-04-02T11:33:56.677Z,95063.00
2019-04-02T11:36:28.976Z,95056.00
2019-04-02T11:39:00.971Z,95054.00
2019-04-02T11:41:32.861Z,95059.00
2019-04-02T11:44:06.266Z,95053.00
2019-04-02T11:46:38.981Z,95057.00
2019-04-02T11:49:11.351Z,95044.00
2019-04-02T11:51:43.158Z,95043.00
2019-04-02T11:54:19.928Z,95040.00
2019-04-02T11:56:49.891Z,95037.00
2019-04-02T11:59:22.213Z,95038.00
2019-04-02T12:01:54.156Z,95027.00
2019-04-02T12:04:26.001Z,95038.00
2019-04-02T12:06:57.832Z,95034.00
2019-04-02T12:09:29.922Z,95022.00
2019-04-02T12:12:03.341Z,95016.00
2019-04-02T12:14:35.139Z,95017.00
2019-04-02T12:17:07.850Z,95014.00
2019-04-02T12:19:39.990Z,95022.00
2019-04-02T12:22:12.247Z,95020.00
2019-04-02T12:24:44.030Z,95004.00
2019-04-02T12:27:16.212Z,95002.00
2019-04-02T12:29:49.561Z,94988.00
2019-04-02T12:32:21.480Z,94987.00
2019-04-02T12:34:53.605Z,94986.00
2019-04-02T12:37:26.665Z,94982.00
2019-04-02T12:40:00.243Z,94978.00
2019-04-02T12:42:32.006Z,94975.00
2019-04-02T12:45:04.494Z,94976.00
2019-04-02T12:47:36.883Z,94965.00
2019-04-02T12:50:09.577Z,94954.00
2019-04-02T12:52:42.369Z,94947.00
2019-04-02T12:55:15.465Z,94947.00
2019-04-02T13:05:39.499Z,94929.00
2019-04-02T13:08:11.740Z,94923.00
2019-04-02T13:10:43.936Z,94926.00
2019-04-02T13:13:18.033Z,94930.00
2019-04-02T13:15:49.512Z,94924.00
2019-04-02T13:18:21.598Z,94922.00
2019-04-02T13:20:53.491Z,94918.00
2019-04-02T13:23:25.337Z,94911.00
2019-04-02T13:25:58.250Z,94915.00
2019-04-02T13:28:30.628Z,94903.00
2019-04-02T13:31:03.542Z,94891.00
2019-04-02T13:33:39.710Z,94905.00
2019-04-02T13:36:11.513Z,94894.00
2019-04-02T13:38:45.969Z,94887.00
2019-04-02T13:41:17.526Z,94892.00
2019-04-02T13:43:49.972Z,94848.00
2019-04-02T13:46:21.864Z,94892.00
2019-04-02T13:48:54.030Z,94893.00
2019-04-02T13:51:25.868Z,94891.00
2019-04-02T13:53:57.923Z,94886.00
2019-04-02T13:56:29.940Z,94882.00
2019-04-02T13:59:03.200Z,94885.00
2019-04-02T14:01:36.136Z,94880.00
2019-04-02T14:04:08.455Z,94881.00
2019-04-02T14:06:40.253Z,94888.00
2019-04-02T14:09:12.352Z,94870.00
2019-04-02T14:11:44.418Z,94875.00
2019-04-02T14:14:16.286Z,94883.00
2019-04-02T14:16:48.097Z,94874.00
2019-04-02T14:19:19.946Z,94859.00
2019-04-02T14:21:51.746Z,94853.00
2019-04-02T14:24:23.578Z,94852.00
2019-04-02T14:26:55.817Z,94852.00
2019-04-02T14:29:27.744Z,94850.00
2019-04-02T14:31:59.536Z,94851.00
2019-04-02T14:34:31.368Z,94847.00
2019-04-02T14:37:03.159Z,94834.00
2019-04-02T14:39:34.995Z,94820.00
2019-04-02T14:42:06.889Z,94839.00
2019-04-02T14:44:39.689Z,94845.00
2019-04-02T14:47:11.938Z,94834.00
2019-04-02T14:49:43.751Z,94837.00
2019-04-02T14:52:15.549Z,94829.00
2019-04-02T14:54:47.686Z,94830.00
2019-04-02T14:57:19.487Z,94823.00
2019-04-02T14:59:52.785Z,94815.00
2019-04-02T15:02:26.477Z,94813.00
2019-04-02T15:04:58.829Z,94822.00
2019-04-02T15:07:30.960Z,94805.00
2019-04-02T15:10:04.469Z,94815.00
2019-04-02T15:12:36.643Z,94814.00
2019-04-02T15:15:08.836Z,94809.00
2019-04-02T15:17:40.668Z,94805.00
2019-04-02T15:20:12.751Z,94813.00
2019-04-02T15:22:44.545Z,94804.00
2019-04-02T15:25:16.375Z,94796.00
2019-04-02T15:27:50.565Z,94807.00
2019-04-02T15:30:22.935Z,94801.00
2019-04-02T15:32:54.733Z,94794.00
2019-04-02T15:35:27.678Z,94797.00
2019-04-02T15:37:59.539Z,94790.00
2019-04-02T15:40:31.360Z,94783.00
2019-04-02T15:43:03.467Z,94783.00
2019-04-02T15:45:35.316Z,94776.00
2019-04-02T15:48:07.416Z,94782.00
2019-04-02T15:50:39.290Z,94771.00
2019-04-02T15:53:11.418Z,94777.00
2019-04-02T15:55:43.653Z,94770.00
2019-04-02T15:58:18.223Z,94766.00
2019-04-02T16:00:50.073Z,94766.00
2019-04-02T16:03:21.863Z,94756.00
2019-04-02T16:05:54.536Z,94761.00
2019-04-02T16:08:26.340Z,94757.00
2019-04-02T16:10:58.257Z,94752.00
2019-04-02T16:13:30.050Z,94740.00
2019-04-02T16:16:01.961Z,94748.00
2019-04-02T16:18:33.885Z,94747.00
2019-04-02T16:21:08.372Z,94744.00
2019-04-02T16:23:40.389Z,94746.00
2019-04-02T16:26:13.721Z,94750.00
2019-04-02T16:28:45.758Z,94748.00
2019-04-02T16:31:19.585Z,94742.00
2019-04-02T16:33:53.034Z,94747.00
2019-04-02T16:36:25.528Z,94741.00
2019-04-02T16:38:57.675Z,94739.00
2019-04-02T16:41:29.553Z,94747.00
2019-04-02T16:44:01.715Z,94749.00
2019-04-02T16:46:33.990Z,94744.00
2019-04-02T16:49:05.788Z,94744.00
2019-04-02T16:51:37.622Z,94743.00
2019-04-02T16:54:09.409Z,94745.00
2019-04-02T16:56:41.248Z,94744.00
2019-04-02T16:59:13.036Z,94745.00
2019-04-02T17:01:44.898Z,94742.00
2019-04-02T17:04:17.042Z,94753.00
2019-04-02T17:06:49.968Z,94746.00
2019-04-02T17:09:21.948Z,94748.00
2019-04-02T17:11:53.897Z,94748.00
2019-04-02T17:14:25.701Z,94757.00
2019-04-02T17:16:58.407Z,94749.00
2019-04-02T17:19:30.193Z,94754.00
2019-04-02T17:22:04.592Z,94748.00
2019-04-02T17:24:35.892Z,94748.00
2019-04-02T17:27:07.728Z,94747.00
2019-04-02T17:29:39.555Z,94751.00
2019-04-02T17:32:11.772Z,94747.00
2019-04-02T17:34:44.259Z,94746.00
2019-04-02T17:37:16.112Z,94751.00
2019-04-02T17:39:50.453Z,94751.00
2019-04-02T17:42:21.783Z,94753.00
2019-04-02T17:44:54.061Z,94746.00
2019-04-02T17:47:26.328Z,94746.00
2019-04-02T17:50:00.662Z,94749.00
2019-04-02T17:52:31.658Z,94751.00
2019-04-02T17:55:03.846Z,94757.00
2019-04-02T17:57:36.351Z,94746.00
2019-04-02T18:00:09.214Z,94747.00
2019-04-02T18:02:42.473Z,94747.00
2019-04-02T18:05:14.581Z,94751.00
2019-04-02T18:07:46.429Z,94742.00
2019-04-02T18:10:18.215Z,94752.00
2019-04-02T18:12:50.141Z,94743.00
2019-04-02T18:15:21.938Z,94749.00
2019-04-02T18:17:53.765Z,94754.00
2019-04-02T18:20:25.948Z,94747.00
2019-04-02T18:22:57.785Z,94744.00
2019-04-02T18:25:30.263Z,94752.00
2019-04-02T18:28:02.098Z,94755.00
2019-04-02T18:30:34.203Z,94750.00
2019-04-02T18:33:06.445Z,94754.00
2019-04-02T18:35:38.245Z,94758.00
2019-04-02T18:38:10.186Z,94762.00
2019-04-02T18:40:42.368Z,94768.00
2019-04-02T18:43:14.222Z,94756.00
2019-04-02T18:45:46.075Z,94760.00
2019-04-02T18:48:18.432Z,94765.00
2019-04-02T18:50:51.022Z,94769.00
2019-04-02T18:53:24.190Z,94776.00
2019-04-02T18:55:56.283Z,94765.00
2019-04-02T18:58:28.546Z,94767.00
2019-04-02T19:01:00.637Z,94770.00
2019-04-02T19:03:32.522Z,94771.00
2019-04-02T19:06:04.332Z,94776.00
2019-04-02T19:08:36.305Z,94765.00
2019-04-02T19:11:11.623Z,94764.00
2019-04-02T19:13:42.022Z,94771.00
2019-04-02T19:16:13.911Z,94775.00
2019-04-02T19:18:45.761Z,94762.00
2019-04-02T19:21:17.570Z,94763.00
2019-04-02T19:23:55.485Z,94759.00
2019-04-02T19:26:23.063Z,94753.00
2019-04-02T19:28:55.216Z,94751.00
2019-04-02T19:31:27.236Z,94751.00
2019-04-02T19:33:59.111Z,94756.00
2019-04-02T19:36:31.550Z,94756.00
2019-04-02T19:39:03.799Z,94754.00
2019-04-02T19:41:35.621Z,94752.00
2019-04-02T19:44:07.800Z,94765.00
2019-04-02T19:46:40.774Z,94768.00
2019-04-02T19:49:12.616Z,94769.00
2019-04-02T19:51:45.377Z,94773.00
2019-04-02T19:54:18.434Z,94764.00
2019-04-02T19:56:54.079Z,94767.00
2019-04-02T19:59:26.738Z,94772.00
2019-04-02T20:01:59.966Z,94771.00
2019-04-02T20:04:32.830Z,94763.00
2019-04-02T20:07:06.325Z,94756.00
2019-04-02T20:09:38.506Z,94753.00
2019-04-02T20:12:10.341Z,94751.00
2019-04-02T20:14:42.725Z,94757.00
2019-04-02T20:17:14.541Z,94755.00
2019-04-02T20:19:46.767Z,94762.00
2019-04-02T20:22:18.579Z,94760.00
2019-04-02T20:24:50.678Z,94762.00
2019-04-02T20:27:22.788Z,94764.00
2019-04-02T20:29:56.302Z,94758.00
2019-04-02T20:32:28.616Z,94768.00
2019-04-02T20:35:01.095Z,94763.00
2019-04-02T20:37:33.322Z,94756.00
2019-04-02T20:40:05.526Z,94755.00
2019-04-02T20:42:37.337Z,94752.00
2019-04-02T20:45:09.609Z,94751.00
2019-04-02T20:47:41.480Z,94752.00
2019-04-02T20:50:13.818Z,94758.00
2019-04-02T20:52:45.635Z,94758.00
2019-04-02T20:55:17.530Z,94763.00
2019-04-02T20:57:49.390Z,94750.00
2019-04-02T21:00:23.315Z,94752.00
2019-04-02T21:03:01.708Z,94757.00
2019-04-02T21:05:33.658Z,94767.00
2019-04-02T21:08:05.769Z,94763.00
2019-04-02T21:10:37.610Z,94773.00
2019-04-02T21:13:15.053Z,94762.00
2019-04-02T21:15:42.983Z,94776.00
2019-04-02T21:18:15.366Z,94776.00
2019-04-02T21:20:47.564Z,94777.00
2019-04-02T21:23:19.476Z,94779.00
2019-04-02T21:25:51.340Z,94777.00
2019-04-02T21:28:24.172Z,94777.00
2019-04-02T21:30:57.567Z,94777.00
2019-04-02T21:33:34.700Z,94783.00
2019-04-02T21:36:03.576Z,94784.00
2019-04-02T21:38:35.683Z,94785.00
2019-04-02T21:41:07.550Z,94787.00
2019-04-02T21:43:39.376Z,94799.00
2019-04-02T21:46:11.278Z,94790.00
2019-04-02T21:48:43.780Z,94799.00
2019-04-02T21:51:16.331Z,94791.00
2019-04-02T21:53:48.160Z,94788.00
2019-04-02T21:56:22.429Z,94793.00
2019-04-02T21:58:56.376Z,94806.00
2019-04-02T22:01:28.270Z,94810.00
2019-04-02T22:04:00.250Z,94809.00
2019-04-02T22:06:32.131Z,94805.00
2019-04-02T22:09:05.651Z,94811.00
2019-04-02T22:11:37.815Z,94813.00
2019-04-02T22:14:12.096Z,94808.00
2019-04-02T22:16:44.040Z,94802.00
2019-04-02T22:19:15.970Z,94805.00
2019-04-02T22:21:47.787Z,94796.00
2019-04-02T22:24:20.841Z,94797.00
2019-04-02T22:26:52.710Z,94793.00
2019-04-02T22:29:24.856Z,94803.00
2019-04-02T22:31:57.008Z,94795.00
2019-04-02T22:34:28.863Z,94787.00
2019-04-02T22:37:01.087Z,94782.00
2019-04-02T22:39:33.012Z,94787.00
2019-04-02T22:42:06.202Z,94781.00
2019-04-02T22:44:40.546Z,94783.00
2019-04-02T22:47:11.920Z,94773.00
2019-04-02T22:49:43.767Z,94775.00
2019-04-02T22:52:15.573Z,94772.00
2019-04-02T22:54:47.415Z,94769.00
2019-04-02T22:57:19.237Z,94769.00
2019-04-02T22:59:51.077Z,94766.00
2019-04-02T23:02:22.887Z,94762.00
2019-04-02T23:04:54.802Z,94768.00
2019-04-02T23:07:26.635Z,94765.00
2019-04-02T23:09:58.675Z,94765.00
2019-04-02T23:12:31.630Z,94758.00
2019-04-02T23:15:05.117Z,94765.00
2019-04-02T23:17:50.744Z,94759.00
2019-04-02T23:20:13.434Z,94752.00
2019-04-02T23:22:46.262Z,94744.00
2019-04-02T23:25:18.259Z,94747.00
2019-04-02T23:27:50.715Z,94751.00
2019-04-02T23:30:24.947Z,94736.00
2019-04-02T23:32:56.436Z,94732.00
2019-04-02T23:35:28.302Z,94739.00
2019-04-02T23:38:03.086Z,94718.00
2019-04-02T23:40:34.172Z,94720.00
2019-04-02T23:43:06.048Z,94716.00
2019-04-02T23:45:37.887Z,94711.00
2019-04-02T23:48:10.228Z,94713.00
2019-04-02T23:50:42.335Z,94714.00
2019-04-02T23:53:14.150Z,94697.00
2019-04-02T23:55:45.997Z,94704.00
2019-04-02T23:58:17.815Z,94696.00
